الصفحة الرئيسية
METAR-TAF:

METAR-TAF

مطار :

Nii Ōshima, اليابان

دائرة عرض: 34-47N, خط طول: 139-22E, ارتفاع: 38 متر

مراقبة الطقس الحالي

تاريخ ووقت الإصدار 26 دقيقة قبل الساعة 02:00UTC
ريح 15 عقدة من الجنوب/الجنوب الغربي
درجة الحرارة 28°درجة مئوية
الرطوبة 79%
ضغط 1007 hPa
الرؤية 10 كم أو أكثر
غيوم قليلة على ارتفاع 400 قدم
غيوم مفككة

METAR: RJTO 250200Z 21015KT 9999 FEW004 BKN/// 28/24 Q1007

زمن: 11:26 (02:26 UTC)


TAF: مفقودة

أرصاد الطقس والتوقعات من أكثر من 4000 مطار (تقارير الطقس للمطار METAR والتنبؤ بالطقس بالمطارTAF).

المحطات المتاحة هي النقط الصفراء والحمراء على الخريطة.

حرك المؤشر فوق النقطة لمعرفة اسم المحطة.

ثم انقر لمعرفة أرصاد وتوقعات الطقس.

لتغيير الخارطة: اضغط على الأزرار الخضراء مع رمز الصليب الأسود للتكبير. على الزر الأخضر مع شرطة للتصغير، أو على الأسهم الخضراء للخرائط المجاورة.


METAR-TAF: